createdAt,value
2019-01-29T00:02:19.156Z,100336.67
2019-01-29T00:04:47.475Z,100339.23
2019-01-29T00:07:15.921Z,100334.31
2019-01-29T00:09:44.330Z,100328.81
2019-01-29T00:12:12.666Z,100327.77
2019-01-29T00:14:40.959Z,100328.79
2019-01-29T00:17:09.300Z,100334.00
2019-01-29T00:19:37.636Z,100334.41
2019-01-29T00:22:06.075Z,100333.98
2019-01-29T00:24:34.344Z,100326.91
2019-01-29T00:27:02.697Z,100330.15
2019-01-29T00:29:31.000Z,100330.15
2019-01-29T00:31:59.274Z,100328.81
2019-01-29T00:34:27.649Z,100331.30
2019-01-29T00:36:55.965Z,100328.73
2019-01-29T00:39:24.334Z,100327.91
2019-01-29T00:41:52.819Z,100323.24
2019-01-29T00:44:21.269Z,100329.48
2019-01-29T00:46:49.609Z,100321.91
2019-01-29T00:49:17.992Z,100322.63
2019-01-29T00:51:46.327Z,100320.58
2019-01-29T00:54:14.628Z,100327.03
2019-01-29T00:56:42.971Z,100325.89
2019-01-29T00:59:11.330Z,100332.14
2019-01-29T01:01:39.686Z,100332.06
2019-01-29T01:04:08.077Z,100331.87
2019-01-29T01:06:36.416Z,100331.34
2019-01-29T01:09:07.559Z,100334.12
2019-01-29T01:11:36.012Z,100335.86
2019-01-29T01:14:04.590Z,100338.91
2019-01-29T01:16:32.903Z,100330.75
2019-01-29T01:19:01.263Z,100338.73
2019-01-29T01:21:29.682Z,100333.81
2019-01-29T01:23:58.102Z,100332.98
2019-01-29T01:26:26.412Z,100331.74
2019-01-29T01:28:54.743Z,100343.78
2019-01-29T01:31:23.121Z,100352.21
2019-01-29T01:33:51.463Z,100351.39
2019-01-29T01:36:19.971Z,100362.45
2019-01-29T01:38:48.323Z,100365.61
2019-01-29T01:41:16.703Z,100367.02
2019-01-29T01:43:45.093Z,100366.09
2019-01-29T01:46:13.523Z,100370.08
2019-01-29T01:48:41.829Z,100373.16
2019-01-29T01:51:10.108Z,100371.62
2019-01-29T01:53:38.612Z,100392.78
2019-01-29T01:56:06.901Z,100377.86
2019-01-29T01:58:35.311Z,100378.40
2019-01-29T02:01:03.648Z,100375.92
2019-01-29T02:03:32.000Z,100376.03
2019-01-29T02:06:00.512Z,100382.58
2019-01-29T02:08:28.967Z,100386.88
2019-01-29T02:10:57.234Z,100385.84
2019-01-29T02:13:25.533Z,100384.41
2019-01-29T02:15:53.913Z,100386.34
2019-01-29T02:18:22.287Z,100386.96
2019-01-29T02:20:50.599Z,100389.33
2019-01-29T02:23:19.141Z,100390.23
2019-01-29T02:25:47.447Z,100394.11
2019-01-29T02:28:15.734Z,100398.42
2019-01-29T02:30:44.239Z,100395.15
2019-01-29T02:33:12.692Z,100397.70
2019-01-29T02:35:41.070Z,100398.60
2019-01-29T02:38:09.372Z,100400.58
2019-01-29T02:40:37.735Z,100399.83
2019-01-29T02:43:06.099Z,100398.60
2019-01-29T02:45:34.438Z,100396.84
2019-01-29T02:48:02.766Z,100405.83
2019-01-29T02:50:31.110Z,100407.34
2019-01-29T02:52:59.373Z,100414.23
2019-01-29T02:55:27.779Z,100418.58
2019-01-29T02:57:56.186Z,100410.09
2019-01-29T03:00:27.159Z,100401.58
2019-01-29T03:02:55.624Z,100405.25
2019-01-29T03:05:23.890Z,100409.63
2019-01-29T03:07:52.313Z,100401.66
2019-01-29T03:10:26.418Z,100403.88
2019-01-29T03:12:54.724Z,100400.17
2019-01-29T03:15:31.416Z,100404.48
2019-01-29T03:17:59.772Z,100405.59
2019-01-29T03:20:28.171Z,100406.10
2019-01-29T03:22:56.545Z,100403.04
2019-01-29T03:25:24.890Z,100403.84
2019-01-29T03:27:53.397Z,100407.64
2019-01-29T03:30:23.062Z,100402.61
2019-01-29T03:32:51.525Z,100406.38
2019-01-29T03:35:19.906Z,100405.81
2019-01-29T03:37:48.324Z,100398.02
2019-01-29T03:40:19.410Z,100401.72
2019-01-29T03:42:47.773Z,100400.06
2019-01-29T03:45:16.982Z,100398.41
2019-01-29T03:47:45.388Z,100396.47
2019-01-29T03:50:16.285Z,100396.19
2019-01-29T03:52:44.622Z,100401.72
2019-01-29T03:55:12.923Z,100400.38
2019-01-29T03:57:41.358Z,100402.98
2019-01-29T04:00:13.088Z,100404.31
2019-01-29T04:02:41.782Z,100410.60
2019-01-29T04:05:10.041Z,100412.03
2019-01-29T04:07:38.400Z,100411.03
2019-01-29T04:10:10.213Z,100419.44
2019-01-29T04:12:38.573Z,100413.22
2019-01-29T04:15:10.349Z,100418.83
2019-01-29T04:17:38.682Z,100424.80
2019-01-29T04:20:10.568Z,100416.09
2019-01-29T04:22:38.939Z,100420.80
2019-01-29T04:25:09.313Z,100424.25
2019-01-29T04:27:37.616Z,100421.66
2019-01-29T04:30:11.924Z,100425.83
2019-01-29T04:32:40.204Z,100421.91
2019-01-29T04:35:08.458Z,100411.34
2019-01-29T04:37:36.853Z,100427.06
2019-01-29T04:40:08.517Z,100419.48
2019-01-29T04:42:36.905Z,100422.44
2019-01-29T04:45:08.527Z,100419.98
2019-01-29T04:47:36.795Z,100422.14
2019-01-29T04:50:07.304Z,100419.23
2019-01-29T04:52:35.629Z,100420.56
2019-01-29T04:55:07.256Z,100418.61
2019-01-29T04:57:35.599Z,100226.63
2019-01-29T05:00:08.059Z,100418.84
2019-01-29T05:02:36.406Z,100383.99
2019-01-29T05:05:08.054Z,100407.97
2019-01-29T05:07:36.360Z,100413.50
2019-01-29T05:10:10.684Z,100416.20
2019-01-29T05:12:40.076Z,100418.36
2019-01-29T05:15:11.774Z,100417.24
2019-01-29T05:17:40.173Z,100409.38
2019-01-29T05:20:14.349Z,100417.97
2019-01-29T05:22:42.994Z,100410.70
2019-01-29T05:25:12.409Z,100412.58
2019-01-29T05:27:40.816Z,100406.36
2019-01-29T05:30:20.607Z,100405.25
2019-01-29T05:32:48.002Z,100413.58
2019-01-29T05:35:16.405Z,100406.89
2019-01-29T05:37:44.818Z,100411.67
2019-01-29T05:40:19.253Z,100412.75
2019-01-29T05:42:47.633Z,100409.80
2019-01-29T05:45:19.229Z,100405.99
2019-01-29T05:47:47.641Z,100411.80
2019-01-29T05:50:16.218Z,100409.93
2019-01-29T05:52:44.717Z,100407.55
2019-01-29T05:55:34.273Z,100414.70
2019-01-29T05:58:17.467Z,100409.34
2019-01-29T06:00:47.122Z,100397.59
2019-01-29T06:03:15.489Z,100406.91
2019-01-29T06:05:43.761Z,100409.32
2019-01-29T06:08:12.176Z,100406.78
2019-01-29T06:10:40.589Z,100402.30
2019-01-29T06:13:08.861Z,100409.34
2019-01-29T06:15:37.263Z,100405.34
2019-01-29T06:18:05.691Z,100406.13
2019-01-29T06:20:34.054Z,100407.78
2019-01-29T06:23:02.364Z,100409.00
2019-01-29T06:25:30.651Z,100410.60
2019-01-29T06:27:59.050Z,100411.22
2019-01-29T06:30:27.439Z,100410.28
2019-01-29T06:32:55.815Z,100419.25
2019-01-29T06:35:24.302Z,100424.88
2019-01-29T06:37:52.612Z,100423.44
2019-01-29T06:40:23.632Z,100418.06
2019-01-29T06:42:51.962Z,100410.89
2019-01-29T06:45:22.837Z,100420.01
2019-01-29T06:47:51.142Z,100417.67
2019-01-29T06:50:21.675Z,100416.19
2019-01-29T06:52:49.963Z,100421.00
2019-01-29T06:55:20.659Z,100422.28
2019-01-29T06:57:55.099Z,100419.63
2019-01-29T07:00:21.946Z,100422.83
2019-01-29T07:02:50.278Z,100422.83
2019-01-29T07:05:18.654Z,100418.31
2019-01-29T07:07:46.918Z,100416.98
2019-01-29T07:10:17.733Z,100415.16
2019-01-29T07:12:46.030Z,100414.44
2019-01-29T07:15:38.284Z,100412.89
2019-01-29T07:18:08.205Z,100420.53
2019-01-29T07:20:36.498Z,100416.73
2019-01-29T07:23:04.902Z,100424.31
2019-01-29T07:25:33.454Z,100422.37
2019-01-29T07:28:01.731Z,100420.03
2019-01-29T07:30:30.032Z,100418.60
2019-01-29T07:32:58.335Z,100425.94
2019-01-29T07:35:26.609Z,100424.43
2019-01-29T07:37:54.985Z,100416.95
2019-01-29T07:40:23.343Z,100413.47
2019-01-29T07:42:51.711Z,100418.00
2019-01-29T07:45:20.043Z,100413.41
2019-01-29T07:47:48.326Z,100416.48
2019-01-29T07:50:16.721Z,100415.27
2019-01-29T07:52:45.053Z,100415.38
2019-01-29T07:55:13.432Z,100420.19
2019-01-29T07:57:41.738Z,100414.16
2019-01-29T08:00:15.915Z,100421.09
2019-01-29T08:02:44.254Z,100420.59
2019-01-29T08:05:13.633Z,100419.80
2019-01-29T08:07:41.965Z,100421.48
2019-01-29T08:10:13.521Z,100421.48
2019-01-29T08:12:41.817Z,100418.95
2019-01-29T08:15:13.487Z,100411.82
2019-01-29T08:17:41.775Z,100416.21
2019-01-29T08:20:12.179Z,100419.09
2019-01-29T08:22:40.628Z,100415.90
2019-01-29T08:25:12.077Z,100422.05
2019-01-29T08:27:40.446Z,100416.13
2019-01-29T08:30:17.381Z,100416.05
2019-01-29T08:32:45.738Z,100418.23
2019-01-29T08:35:17.270Z,100413.36
2019-01-29T08:37:45.665Z,100415.51
2019-01-29T08:40:17.572Z,100407.64
2019-01-29T08:42:45.833Z,100407.23
2019-01-29T08:45:17.239Z,100405.91
2019-01-29T08:47:45.741Z,100404.06
2019-01-29T08:50:17.431Z,100403.44
2019-01-29T08:52:45.873Z,100402.83
2019-01-29T08:55:14.367Z,100400.86
2019-01-29T08:57:42.703Z,100393.70
2019-01-29T09:00:14.545Z,100397.78
2019-01-29T09:02:42.919Z,100400.25
2019-01-29T09:05:11.311Z,100398.41
2019-01-29T09:07:39.731Z,100405.34
2019-01-29T09:10:14.242Z,100402.03
2019-01-29T09:12:42.520Z,100402.08
2019-01-29T09:15:14.413Z,100398.21
2019-01-29T09:17:42.790Z,100401.25
2019-01-29T09:20:14.411Z,100395.27
2019-01-29T09:22:43.013Z,100396.72
2019-01-29T09:25:20.930Z,100396.00
2019-01-29T09:27:44.484Z,100395.12
2019-01-29T09:30:18.034Z,100392.03
2019-01-29T09:32:46.442Z,100389.02
2019-01-29T09:35:14.779Z,100387.03
2019-01-29T09:37:43.132Z,100381.64
2019-01-29T09:40:23.765Z,100378.27
2019-01-29T09:42:52.027Z,100373.05
2019-01-29T09:45:21.444Z,100368.45
2019-01-29T09:47:49.708Z,100376.66
2019-01-29T09:50:21.035Z,100375.64
2019-01-29T09:52:49.437Z,100365.70
2019-01-29T09:55:29.050Z,100358.36
2019-01-29T09:57:50.901Z,100361.90
2019-01-29T10:00:25.004Z,100358.84
2019-01-29T10:02:53.416Z,100360.06
2019-01-29T10:05:21.807Z,100359.11
2019-01-29T10:07:50.151Z,100356.86
2019-01-29T10:10:18.595Z,100343.74
2019-01-29T10:12:46.863Z,100347.70
2019-01-29T10:15:33.626Z,100346.19
2019-01-29T10:18:02.047Z,100337.72
2019-01-29T10:20:31.036Z,100344.53
2019-01-29T10:22:59.414Z,100335.98
2019-01-29T10:25:27.798Z,100340.27
2019-01-29T10:27:56.141Z,100331.94
2019-01-29T10:30:27.078Z,100332.00
2019-01-29T10:32:55.588Z,100325.39
2019-01-29T10:35:26.223Z,100317.15
2019-01-29T10:37:54.509Z,100319.49
2019-01-29T10:40:26.202Z,100319.75
2019-01-29T10:42:54.813Z,100321.10
2019-01-29T10:45:24.408Z,100313.27
2019-01-29T10:47:52.906Z,100311.42
2019-01-29T10:50:28.198Z,100305.39
2019-01-29T10:52:57.860Z,100308.35
2019-01-29T10:55:26.194Z,100306.16
2019-01-29T10:57:54.576Z,100303.59
2019-01-29T11:00:26.450Z,100306.38
2019-01-29T11:02:54.694Z,100303.39
2019-01-29T11:05:23.846Z,100297.87
2019-01-29T11:07:52.207Z,100297.87
2019-01-29T11:10:21.316Z,100296.80
2019-01-29T11:12:49.798Z,100298.06
2019-01-29T11:15:32.009Z,100290.32
2019-01-29T11:18:00.541Z,100288.88
2019-01-29T11:20:28.946Z,100283.24
2019-01-29T11:22:57.430Z,100277.62
2019-01-29T11:25:28.466Z,100274.42
2019-01-29T11:27:56.748Z,100274.20
2019-01-29T11:30:27.751Z,100273.06
2019-01-29T11:32:56.256Z,100259.91
2019-01-29T11:35:24.608Z,100263.67
2019-01-29T11:37:52.991Z,100263.70
2019-01-29T11:40:26.501Z,100256.50
2019-01-29T11:42:54.928Z,100257.11
2019-01-29T11:45:31.356Z,100254.48
2019-01-29T11:47:59.774Z,100250.56
2019-01-29T11:50:28.206Z,100245.74
2019-01-29T11:52:56.483Z,100247.20
2019-01-29T11:55:24.833Z,100242.81
2019-01-29T11:57:53.233Z,100240.22
2019-01-29T12:00:26.319Z,100243.36
2019-01-29T12:02:54.654Z,100236.16
2019-01-29T12:05:23.054Z,100230.21
2019-01-29T12:08:28.171Z,100239.37
2019-01-29T12:10:56.458Z,100238.38
2019-01-29T12:13:24.733Z,100224.73
2019-01-29T12:15:53.105Z,100229.39
2019-01-29T12:18:21.537Z,100235.06
2019-01-29T12:20:49.799Z,100226.41
2019-01-29T12:23:18.790Z,100225.88
2019-01-29T12:25:47.142Z,100233.30
2019-01-29T12:28:15.524Z,100225.22
2019-01-29T12:30:43.846Z,100225.59
2019-01-29T12:33:12.230Z,100229.46
2019-01-29T12:35:40.532Z,100223.14
2019-01-29T12:38:08.902Z,100219.87
2019-01-29T12:40:37.959Z,100223.28
2019-01-29T12:43:06.261Z,100224.08
2019-01-29T12:45:34.725Z,100222.53
2019-01-29T12:48:03.083Z,100210.03
2019-01-29T12:50:33.048Z,100207.97
2019-01-29T12:53:03.876Z,100210.30
2019-01-29T12:55:37.990Z,100204.27
2019-01-29T12:58:06.809Z,100198.46
2019-01-29T13:00:36.718Z,100182.27
2019-01-29T13:03:05.465Z,100183.19
2019-01-29T13:05:33.954Z,100185.59
2019-01-29T13:08:02.235Z,100181.58
2019-01-29T13:10:30.603Z,100186.05
2019-01-29T13:13:03.958Z,100181.76
2019-01-29T13:15:34.337Z,100171.32
2019-01-29T13:18:07.891Z,100174.89
2019-01-29T13:20:40.137Z,100173.48
2019-01-29T13:23:11.031Z,100158.14
2019-01-29T13:25:40.435Z,100172.08
2019-01-29T13:28:11.278Z,100157.42
2019-01-29T13:30:40.064Z,100151.72
2019-01-29T13:33:14.487Z,100156.34
2019-01-29T13:35:42.884Z,100151.67
2019-01-29T13:38:11.360Z,100150.42
2019-01-29T13:40:39.687Z,100147.30
2019-01-29T13:43:08.305Z,100147.84
2019-01-29T13:45:36.687Z,100139.08
2019-01-29T13:48:05.748Z,100138.99
2019-01-29T13:50:37.380Z,100140.03
2019-01-29T13:53:06.740Z,100137.09
2019-01-29T13:55:35.261Z,100126.38
2019-01-29T13:58:03.657Z,100126.39
2019-01-29T14:00:34.646Z,100127.42
2019-01-29T14:03:03.128Z,100127.42
2019-01-29T14:05:31.437Z,100123.59
2019-01-29T14:07:59.803Z,100119.38
2019-01-29T14:10:28.139Z,100120.66
2019-01-29T14:12:56.515Z,100105.30
2019-01-29T14:15:27.839Z,100115.27
2019-01-29T14:17:56.106Z,100105.89
2019-01-29T14:20:24.470Z,100103.80
2019-01-29T14:22:52.786Z,100104.55
2019-01-29T14:25:21.195Z,100098.40
2019-01-29T14:27:49.481Z,100101.22
2019-01-29T14:30:26.623Z,100099.06
2019-01-29T14:32:55.031Z,100086.20
2019-01-29T14:35:23.469Z,100092.30
2019-01-29T14:38:06.877Z,100090.65
2019-01-29T14:40:35.361Z,100092.75
2019-01-29T14:43:07.536Z,100090.29
2019-01-29T14:45:35.966Z,100084.22
2019-01-29T14:48:05.008Z,100085.83
2019-01-29T14:50:33.370Z,100054.14
2019-01-29T14:53:01.780Z,100085.52
2019-01-29T14:55:30.122Z,100076.05
2019-01-29T14:57:58.518Z,100081.33
2019-01-29T15:00:37.561Z,100077.93
2019-01-29T15:03:06.717Z,100072.70
2019-01-29T15:05:35.259Z,100068.20
2019-01-29T15:08:04.026Z,100067.97
2019-01-29T15:10:33.795Z,100066.38
2019-01-29T15:13:02.148Z,100066.08
2019-01-29T15:15:37.877Z,100061.92
2019-01-29T15:18:25.680Z,100054.08
2019-01-29T15:20:54.197Z,100044.45
2019-01-29T15:23:23.002Z,100045.28
2019-01-29T15:25:51.537Z,100040.34
2019-01-29T15:28:19.949Z,100041.32
2019-01-29T15:31:01.496Z,100044.06
2019-01-29T15:33:31.158Z,100039.31
2019-01-29T15:35:59.458Z,100038.66
2019-01-29T15:38:28.129Z,100035.55
2019-01-29T15:40:56.659Z,100027.55
2019-01-29T15:43:26.235Z,100020.33
2019-01-29T15:45:54.730Z,100020.77
2019-01-29T15:48:23.409Z,100013.72
2019-01-29T15:50:52.143Z,100013.13
2019-01-29T15:53:20.554Z,100010.59
2019-01-29T15:55:49.626Z,100005.43
2019-01-29T15:58:18.200Z,100005.48
2019-01-29T16:00:46.793Z,100001.69
2019-01-29T16:03:15.235Z,100006.37
2019-01-29T16:05:43.619Z,100001.08
2019-01-29T16:08:13.815Z,100003.16
2019-01-29T16:10:44.730Z,99998.64
2019-01-29T16:13:13.650Z,99989.59
2019-01-29T16:15:43.479Z,99989.26
2019-01-29T16:18:13.511Z,99981.98
2019-01-29T16:20:42.180Z,99978.03
2019-01-29T16:23:10.752Z,99978.41
2019-01-29T16:25:39.525Z,99972.39
2019-01-29T16:28:08.221Z,99975.12
2019-01-29T16:30:38.847Z,99966.48
2019-01-29T16:33:13.559Z,99966.95
2019-01-29T16:35:44.465Z,99963.73
2019-01-29T16:38:13.928Z,99963.91
2019-01-29T16:40:46.942Z,99960.77
2019-01-29T16:43:15.768Z,99958.84
2019-01-29T16:45:44.894Z,99962.27
2019-01-29T16:48:25.752Z,99961.47
2019-01-29T16:50:55.538Z,99956.20
2019-01-29T16:53:24.571Z,99957.56
2019-01-29T16:55:53.497Z,99954.70
2019-01-29T16:58:23.218Z,99952.88
2019-01-29T17:00:52.661Z,99951.97
2019-01-29T17:03:21.645Z,99951.06
2019-01-29T17:05:50.582Z,99948.00
2019-01-29T17:08:19.577Z,99949.47
2019-01-29T17:10:48.178Z,99948.13
2019-01-29T17:13:17.124Z,99947.42
2019-01-29T17:15:45.607Z,99940.37
2019-01-29T17:18:14.042Z,99940.77
2019-01-29T17:20:49.628Z,99939.36
2019-01-29T17:23:19.498Z,99932.81
2019-01-29T17:25:47.972Z,99934.47
2019-01-29T17:28:16.388Z,99928.66
2019-01-29T17:30:46.122Z,99931.42
2019-01-29T17:33:21.380Z,99926.75
2019-01-29T17:35:49.842Z,99927.16
2019-01-29T17:38:18.324Z,99919.01
2019-01-29T17:40:47.230Z,99914.08
2019-01-29T17:43:16.000Z,99915.33
2019-01-29T17:45:50.495Z,99909.64
2019-01-29T17:48:19.534Z,99911.89
2019-01-29T17:50:48.049Z,99905.44
2019-01-29T17:53:17.192Z,99903.28
2019-01-29T17:55:46.215Z,99903.50
2019-01-29T17:58:16.262Z,99900.75
2019-01-29T18:00:46.379Z,99895.55
2019-01-29T18:03:14.757Z,99898.30
2019-01-29T18:05:43.329Z,99892.89
2019-01-29T18:08:11.664Z,99891.06
2019-01-29T18:10:45.710Z,99889.31
2019-01-29T18:13:14.752Z,99888.19
2019-01-29T18:15:43.483Z,99886.77
2019-01-29T18:18:15.497Z,99885.66
2019-01-29T18:20:44.191Z,99885.66
2019-01-29T18:23:12.658Z,99878.70
2019-01-29T18:25:41.124Z,99878.20
2019-01-29T18:28:09.610Z,99876.23
2019-01-29T18:30:38.053Z,99880.20
2019-01-29T18:33:06.462Z,99880.20
2019-01-29T18:35:34.913Z,99878.47
2019-01-29T18:38:03.283Z,99876.95
2019-01-29T18:40:43.603Z,99869.99
2019-01-29T18:43:12.006Z,99867.16
2019-01-29T18:45:40.375Z,99870.41
2019-01-29T18:48:08.714Z,99863.17
2019-01-29T18:50:37.099Z,99868.17
2019-01-29T18:53:05.583Z,99864.17
2019-01-29T18:55:33.985Z,99863.16
2019-01-29T18:58:11.458Z,99860.88
2019-01-29T19:00:32.505Z,99858.23
2019-01-29T19:03:01.099Z,99859.95
2019-01-29T19:05:36.664Z,99854.96
2019-01-29T19:08:05.265Z,99856.36
2019-01-29T19:10:34.447Z,99851.95
2019-01-29T19:13:02.825Z,99843.15
2019-01-29T19:15:31.258Z,99847.38
2019-01-29T19:18:00.862Z,99840.53
2019-01-29T19:20:29.502Z,99835.78
2019-01-29T19:22:58.635Z,99835.28
2019-01-29T19:25:26.980Z,99833.87
2019-01-29T19:27:55.436Z,99834.88
2019-01-29T19:30:32.703Z,99837.45
2019-01-29T19:33:01.518Z,99841.36
2019-01-29T19:35:30.036Z,99845.98
2019-01-29T19:38:02.751Z,99841.31
2019-01-29T19:40:32.296Z,99837.16
2019-01-29T19:43:01.417Z,99840.42
2019-01-29T19:45:34.760Z,99838.52
2019-01-29T19:48:06.479Z,99839.76
2019-01-29T19:50:35.828Z,99838.63
2019-01-29T19:53:05.555Z,99839.96
2019-01-29T19:55:34.905Z,99817.33
2019-01-29T19:58:09.185Z,99839.68
2019-01-29T20:00:41.775Z,99836.98
2019-01-29T20:03:12.494Z,99830.46
2019-01-29T20:05:40.963Z,99830.55
2019-01-29T20:08:10.289Z,99828.78
2019-01-29T20:10:38.845Z,99822.66
2019-01-29T20:13:07.394Z,99825.87
2019-01-29T20:15:35.893Z,99825.56
2019-01-29T20:18:09.826Z,99824.53
2019-01-29T20:20:41.789Z,99795.53
2019-01-29T20:23:11.357Z,99820.73
2019-01-29T20:25:40.666Z,99819.79
2019-01-29T20:28:09.772Z,99825.33
2019-01-29T20:30:43.999Z,99824.71
2019-01-29T20:33:23.301Z,99824.50
2019-01-29T20:36:06.358Z,99816.03
2019-01-29T20:38:47.842Z,99815.12
2019-01-29T20:41:22.157Z,99822.27
2019-01-29T20:43:50.720Z,99814.72
2019-01-29T20:46:19.061Z,99810.25
2019-01-29T20:48:47.478Z,99805.75
2019-01-29T20:51:15.969Z,99805.66
2019-01-29T20:53:44.512Z,99793.41
2019-01-29T20:56:12.996Z,99793.23
2019-01-29T20:58:41.424Z,99789.84
2019-01-29T21:01:09.803Z,99786.77
2019-01-29T21:03:38.124Z,99787.91
2019-01-29T21:06:06.662Z,99786.50
2019-01-29T21:08:35.011Z,99779.95
2019-01-29T21:11:03.356Z,99781.28
2019-01-29T21:13:34.656Z,99769.44
2019-01-29T21:16:03.712Z,99770.56
2019-01-29T21:18:32.235Z,99768.09
2019-01-29T21:21:00.882Z,99768.39
2019-01-29T21:23:29.686Z,99765.56
2019-01-29T21:25:58.117Z,99760.70
2019-01-29T21:28:26.846Z,99760.59
2019-01-29T21:30:55.176Z,99763.83
2019-01-29T21:33:23.626Z,99756.83
2019-01-29T21:35:52.579Z,99754.66
2019-01-29T21:38:21.752Z,99747.03
2019-01-29T21:40:50.083Z,99745.70
2019-01-29T21:43:19.420Z,99743.70
2019-01-29T21:45:48.528Z,99740.81
2019-01-29T21:48:16.964Z,99742.59
2019-01-29T21:50:45.368Z,99733.13
2019-01-29T21:53:13.736Z,99734.67
2019-01-29T21:55:42.671Z,99727.46
2019-01-29T21:58:10.958Z,99724.21
2019-01-29T22:00:42.381Z,99720.00
2019-01-29T22:03:10.907Z,99714.81
2019-01-29T22:05:39.275Z,99710.83
2019-01-29T22:08:07.991Z,99711.91
2019-01-29T22:10:36.323Z,99709.34
2019-01-29T22:13:07.369Z,99710.92
2019-01-29T22:15:35.660Z,99613.01
2019-01-29T22:18:05.293Z,99705.52
2019-01-29T22:20:33.590Z,99721.39
2019-01-29T22:23:01.892Z,99707.33
2019-01-29T22:25:30.252Z,99698.85
2019-01-29T22:27:58.585Z,99692.91
2019-01-29T22:30:32.800Z,99690.73
2019-01-29T22:33:01.182Z,99685.57
2019-01-29T22:35:29.519Z,99684.60
2019-01-29T22:37:57.809Z,99685.73
2019-01-29T22:40:30.818Z,99682.53
2019-01-29T22:43:01.218Z,99678.90
2019-01-29T22:45:29.605Z,99679.41
2019-01-29T22:47:57.964Z,99677.91
2019-01-29T22:50:32.572Z,99674.13
2019-01-29T22:53:00.951Z,99671.81
2019-01-29T22:55:30.050Z,99669.08
2019-01-29T22:57:58.426Z,99667.63
2019-01-29T23:00:52.225Z,99662.91
2019-01-29T23:03:23.247Z,99654.91
2019-01-29T23:05:57.651Z,99651.94
2019-01-29T23:08:26.028Z,99641.32
2019-01-29T23:10:54.417Z,99648.81
2019-01-29T23:13:22.959Z,99642.02
2019-01-29T23:15:51.316Z,99641.47
2019-01-29T23:18:19.653Z,99641.94
2019-01-29T23:20:47.974Z,99638.20
2019-01-29T23:23:16.313Z,99635.84
2019-01-29T23:25:44.727Z,99634.52
2019-01-29T23:28:13.033Z,99633.35
2019-01-29T23:30:41.521Z,99634.20
2019-01-29T23:33:09.929Z,99627.87
2019-01-29T23:35:38.318Z,99623.11
2019-01-29T23:38:06.730Z,99619.16
2019-01-29T23:40:35.116Z,99618.63
2019-01-29T23:43:03.423Z,99617.42
2019-01-29T23:45:31.773Z,99609.33
2019-01-29T23:48:03.240Z,99606.28
2019-01-29T23:50:32.976Z,99598.00
2019-01-29T23:53:01.243Z,99596.59
2019-01-29T23:55:29.638Z,99594.88
2019-01-29T23:57:58.096Z,99594.95
